Cleveland, OH (44141)

11:54 PM EST on December 20, 2014 (GMT -0500)
Macintosh Farms | Change Station
CLOSE
Current Station
Personal Weather Station
Location: Broadview Heights, OH
Elevation: 1230 ft
Nearby Weather Stations

Elev 1230 ft 41.28 °N, 81.69 °W | Updated 8 minutes ago

Overcast
Overcast
27.9 °F
Feels Like 28 °F
N
0.0
Wind Variable Wind from SW
Gusts 0.0 mph

Today
High -- | Low -- °F
--% Chance of Precip.
Yesterday
High -- | Low -- °F
Precip. -- in
7:48 AM 4:59 PM
Waning Crescent, 1% visible
Pressure 30.33 in
Visibility 10.0 miles
Clouds Overcast 2700 ft
Windchill 28 °F
Dew Point 22 °F
Humidity 79%
Rainfall 0.00 in
Snow Depth Not available.
UV 0 out of 12
Pollen .10 out of 12
Air Quality Not available.
Flu Activity Not available.
METAR KCLE 210451Z 23003KT 10SM OVC027 M02/M05 A3030 RMK AO2 SLP271 T10171050 410061022 $

More Conditions Fewer Conditions

Pressure 30.33 in
Visibility 10.0 miles
Clouds Overcast 2700 ft
Windchill 28 °F
Dew Point 22 °F
Humidity 79%
Rainfall 0.00 in
Snow Depth Not available.
UV 0 out of 12
Pollen .10 out of 12
Air Quality Not available.
Flu Activity Not available.
METAR KCLE 210451Z 23003KT 10SM OVC027 M02/M05 A3030 RMK AO2 SLP271 T10171050 410061022 $

More Conditions Fewer Conditions

10-Day Weather Forecast

Almanac

Astronomy

Dec. 20, 2014 Rise Set
Actual Time
Civil Twilight
Nautical Twilight
Astronomical Twilight
Moon
Length of Visible Light
Length of Day
Tomorrow will be .
, % of the Moon is Illuminated

Today's Extremes

State Highs State Lows

Community

WunderPhotos

Upload Photos

1,779,358 photos uploaded!

WunderBlogs® & News

Nearby

Air Quality

  Air Quality AQ Index Pollutant
Not available.

Snow Depth

Station Depth Elevation

Earthquake Activity

City Distance Mag. Time & Date
Minimum magnitude displayed is 2.5.

Coastal Water Temperatures

Place Temperature

Nearby Weather Stations